メインページ
METAR-TAF:

METAR-TAF

空港 :

プリンス・サイード・イブラヒーム国際空港

モロニ, コモロ

緯度: 11-32S, 経度: 043-16E, 海抜: 29m

現時点の気象観測

当レポートは39分前の20:00(UTC)に作成
変向風 2kt
気温 24°C
湿度 69%
気圧 1018 hPa
視程10km以上
高度2000ftの雲はほとんどない

METAR: FMCH 172000Z VRB02KT 9999 FEW020 24/18 Q1018 NOSIG

時間: 23:39 (20:39 UTC)

予報

当レポートは3時間39分前の17:00(UTC)に作成
予報は17日の 18時(UTC)から 18日の 24時(UTC)まで有効
の風 3kt
視程10km以上
高度2000ftの雲はほとんどない
18日の 03時(UTC)から 18日の 07時(UTC)まで一時的に
東/南東の風 12kt
18日の 07時(UTC)から 18日の 09時(UTC)まで徐々に
南西の風 12kt
18日の 15時(UTC)から 18日の 17時(UTC)まで徐々に
の風 3kt

TAF: FMCH 171700Z 1718/1824 08003KT 9999 FEW020 TEMPO 1803/1807 12012KT BECMG 1807/1809 23012KT BECMG 1815/1817 10003KT

4,000以上の空港の気象観測と天気予報(METAR報とTAF報)

利用可能な観測所は地図上に黄色い丸と赤い丸で示す。

丸の上にカーソルを重ねると観測所名を参照できる。

次にクリックすると気象観測と天気予報を参照できる。

マップの切り替え:黒色「×」印の緑ボタンをクリックして拡大、「-」印の緑ボタンをクリックして縮小、緑色の三角印をクリックして隣りの地図に切り替え


METAR-TAF: